createdAt,value
2019-04-27T00:00:47.071Z,94124.91
2019-04-27T00:03:17.388Z,94125.30
2019-04-27T00:05:47.615Z,94129.61
2019-04-27T00:08:17.941Z,94132.91
2019-04-27T00:10:51.130Z,94132.86
2019-04-27T00:13:20.079Z,94138.14
2019-04-27T00:15:53.800Z,94136.84
2019-04-27T00:18:45.065Z,94129.41
2019-04-27T00:21:19.512Z,94126.23
2019-04-27T00:23:48.965Z,94131.36
2019-04-27T00:26:17.757Z,94129.27
2019-04-27T00:28:46.458Z,94125.50
2019-04-27T00:31:15.231Z,94127.86
2019-04-27T00:33:44.123Z,94127.69
2019-04-27T00:36:31.046Z,94124.29
2019-04-27T00:39:03.524Z,94128.04
2019-04-27T00:41:33.951Z,94122.14
2019-04-27T00:44:03.732Z,94117.71
2019-04-27T00:46:33.086Z,94117.36
2019-04-27T00:49:03.707Z,94115.39
2019-04-27T00:51:33.301Z,94114.30
2019-04-27T00:54:02.293Z,94116.65
2019-04-27T00:56:44.723Z,94106.37
2019-04-27T00:59:17.786Z,94104.06
2019-04-27T01:02:03.780Z,94103.45
2019-04-27T01:04:34.063Z,94097.77
2019-04-27T01:07:03.938Z,94095.80
2019-04-27T01:09:33.898Z,94100.31
2019-04-27T01:12:03.686Z,94101.03
2019-04-27T01:14:34.147Z,94104.64
2019-04-27T01:17:03.067Z,94108.05
2019-04-27T01:19:31.752Z,94104.58
2019-04-27T01:22:00.446Z,94110.23
2019-04-27T01:24:30.464Z,94106.25
2019-04-27T01:27:18.812Z,94111.88
2019-04-27T01:29:50.088Z,94107.44
2019-04-27T01:32:20.629Z,94112.41
2019-04-27T01:34:49.679Z,94114.64
2019-04-27T01:37:19.524Z,94120.20
2019-04-27T01:39:50.545Z,94115.14
2019-04-27T01:42:20.482Z,94118.73
2019-04-27T01:44:50.791Z,94128.36
2019-04-27T01:47:20.404Z,94119.29
2019-04-27T01:49:49.572Z,94116.73
2019-04-27T01:52:19.543Z,94123.63
2019-04-27T01:54:49.622Z,94122.63
2019-04-27T01:57:19.875Z,94124.77
2019-04-27T01:59:50.713Z,94115.33
2019-04-27T02:02:21.207Z,94119.50
2019-04-27T02:04:54.509Z,94118.73
2019-04-27T02:07:23.289Z,94115.44
2019-04-27T02:09:52.179Z,94110.97
2019-04-27T02:12:21.335Z,94108.97
2019-04-27T02:14:50.486Z,94106.05
2019-04-27T02:17:19.159Z,94113.85
2019-04-27T02:19:49.384Z,94114.44
2019-04-27T02:22:18.771Z,94107.58
2019-04-27T02:24:49.261Z,94107.17
2019-04-27T02:27:19.951Z,94109.44
2019-04-27T02:30:06.117Z,94112.26
2019-04-27T02:32:39.704Z,94108.38
2019-04-27T02:35:09.926Z,94113.30
2019-04-27T02:37:40.439Z,94119.17
2019-04-27T02:40:42.398Z,94125.37
2019-04-27T02:43:10.853Z,94128.05
2019-04-27T02:45:40.265Z,94132.63
2019-04-27T02:48:09.807Z,94137.20
2019-04-27T02:50:39.913Z,94135.72
2019-04-27T02:53:11.037Z,94137.87
2019-04-27T02:55:40.322Z,94137.05
2019-04-27T02:58:09.982Z,94138.44
2019-04-27T03:00:40.195Z,94143.03
2019-04-27T03:03:10.548Z,94129.00
2019-04-27T03:05:42.466Z,94130.03
2019-04-27T03:08:11.366Z,94132.63
2019-04-27T03:10:40.286Z,94129.05
2019-04-27T03:13:16.409Z,94131.97
2019-04-27T03:16:00.458Z,94136.02
2019-04-27T03:18:33.916Z,94139.98
2019-04-27T03:21:07.229Z,94135.85
2019-04-27T03:23:36.387Z,94143.16
2019-04-27T03:26:24.772Z,94140.39
2019-04-27T03:28:54.367Z,94139.48
2019-04-27T03:31:23.160Z,94137.98
2019-04-27T03:33:58.621Z,94135.67
2019-04-27T03:36:22.687Z,94138.66
2019-04-27T03:38:51.405Z,94138.01
2019-04-27T03:41:20.753Z,94120.73
2019-04-27T03:43:50.444Z,94128.62
2019-04-27T03:46:22.052Z,94124.73
2019-04-27T03:48:50.843Z,94125.84
2019-04-27T03:51:21.839Z,94134.27
2019-04-27T03:54:00.409Z,94135.02
2019-04-27T03:56:30.920Z,94131.24
2019-04-27T03:59:01.882Z,94134.88
2019-04-27T04:01:33.538Z,94132.83
2019-04-27T04:04:02.509Z,94131.23
2019-04-27T04:06:31.407Z,94129.62
2019-04-27T04:09:00.471Z,94129.92
2019-04-27T04:11:33.142Z,94132.72
2019-04-27T04:14:06.808Z,94132.61
2019-04-27T04:16:40.070Z,94130.24
2019-04-27T04:19:11.932Z,94136.72
2019-04-27T04:21:40.940Z,94136.61
2019-04-27T04:24:11.968Z,94138.63
2019-04-27T04:26:41.379Z,94136.31
2019-04-27T04:29:10.607Z,94134.78
2019-04-27T04:31:40.530Z,94135.02
2019-04-27T04:34:12.270Z,94138.55
2019-04-27T04:36:42.965Z,94137.05
2019-04-27T04:39:12.765Z,94132.06
2019-04-27T04:41:50.941Z,94130.88
2019-04-27T04:44:21.017Z,94135.64
2019-04-27T04:46:51.347Z,94134.23
2019-04-27T04:49:20.026Z,94135.03
2019-04-27T04:51:50.327Z,94126.31
2019-04-27T04:54:19.874Z,94130.51
2019-04-27T04:56:50.170Z,94135.94
2019-04-27T04:59:20.093Z,94134.66
2019-04-27T05:01:49.910Z,94134.86
2019-04-27T05:04:19.454Z,94130.57
2019-04-27T05:06:49.164Z,94132.86
2019-04-27T05:09:19.363Z,94133.87
2019-04-27T05:11:48.697Z,94134.95
2019-04-27T05:14:19.807Z,94128.18
2019-04-27T05:16:48.927Z,94136.46
2019-04-27T05:19:18.838Z,94135.33
2019-04-27T05:21:51.574Z,94138.94
2019-04-27T05:24:20.411Z,94140.94
2019-04-27T05:26:49.267Z,94138.34
2019-04-27T05:29:19.161Z,94130.06
2019-04-27T05:31:49.019Z,94140.11
2019-04-27T05:34:19.723Z,94139.14
2019-04-27T05:36:52.399Z,94137.81
2019-04-27T05:39:24.670Z,94131.79
2019-04-27T05:41:50.983Z,94136.88
2019-04-27T05:44:21.240Z,94125.52
2019-04-27T05:46:58.784Z,94125.11
2019-04-27T05:49:29.574Z,94124.19
2019-04-27T05:51:59.439Z,94128.96
2019-04-27T05:54:29.390Z,94121.64
2019-04-27T05:57:01.938Z,94123.36
2019-04-27T05:59:33.401Z,94114.74
2019-04-27T06:02:02.351Z,94113.41
2019-04-27T06:04:31.118Z,94112.41
2019-04-27T06:07:01.174Z,94109.92
2019-04-27T06:09:29.910Z,94110.30
2019-04-27T06:12:01.389Z,94104.50
2019-04-27T06:14:31.272Z,94109.80
2019-04-27T06:16:59.995Z,94105.83
2019-04-27T06:19:29.188Z,94110.00
2019-04-27T06:22:01.148Z,94100.41
2019-04-27T06:24:32.955Z,94100.34
2019-04-27T06:27:01.675Z,94108.70
2019-04-27T06:29:30.981Z,94106.50
2019-04-27T06:31:59.761Z,94102.22
2019-04-27T06:34:30.864Z,94110.16
2019-04-27T06:36:59.917Z,94110.82
2019-04-27T06:39:29.777Z,94115.56
2019-04-27T06:42:01.201Z,94118.47
2019-04-27T06:44:29.952Z,94123.66
2019-04-27T06:46:59.240Z,94124.48
2019-04-27T06:49:29.579Z,94126.58
2019-04-27T06:51:59.007Z,94138.86
2019-04-27T06:54:28.882Z,94122.86
2019-04-27T06:56:59.217Z,94131.36
2019-04-27T06:59:28.857Z,94126.13
2019-04-27T07:01:59.270Z,94121.39
2019-04-27T07:04:29.514Z,94115.86
2019-04-27T07:06:59.452Z,94124.44
2019-04-27T07:09:29.629Z,94125.52
2019-04-27T07:11:59.385Z,94124.87
2019-04-27T07:14:29.507Z,94125.02
2019-04-27T07:16:59.828Z,94119.97
2019-04-27T07:19:30.227Z,94115.80
2019-04-27T07:21:59.532Z,94117.95
2019-04-27T07:24:29.254Z,94119.11
2019-04-27T07:26:59.679Z,94114.72
2019-04-27T07:29:29.249Z,94117.59
2019-04-27T07:31:59.808Z,94127.25
2019-04-27T07:34:30.564Z,94120.76
2019-04-27T07:36:59.901Z,94124.28
2019-04-27T07:39:29.518Z,94120.41
2019-04-27T07:41:58.717Z,94119.02
2019-04-27T07:44:29.410Z,94122.08
2019-04-27T07:47:19.467Z,94124.50
2019-04-27T07:49:49.748Z,94113.48
2019-04-27T07:52:20.662Z,94117.07
2019-04-27T07:54:49.606Z,94122.43
2019-04-27T07:57:19.728Z,94126.34
2019-04-27T07:59:50.111Z,94122.48
2019-04-27T08:02:19.351Z,94126.52
2019-04-27T08:04:50.277Z,94120.14
2019-04-27T08:07:19.648Z,94120.93
2019-04-27T08:09:49.685Z,94116.39
2019-04-27T08:12:20.938Z,94116.03
2019-04-27T08:14:50.148Z,94112.49
2019-04-27T08:17:19.286Z,94116.11
2019-04-27T08:19:49.558Z,94115.09
2019-04-27T08:22:19.312Z,94102.95
2019-04-27T08:24:49.666Z,94099.85
2019-04-27T08:27:36.635Z,94099.56
2019-04-27T08:30:12.369Z,94092.79
2019-04-27T08:32:45.463Z,94088.89
2019-04-27T08:35:16.202Z,94085.89
2019-04-27T08:37:44.888Z,94102.59
2019-04-27T08:40:14.011Z,94100.19
2019-04-27T08:42:42.660Z,94098.95
2019-04-27T08:45:11.968Z,94091.71
2019-04-27T08:47:41.749Z,94098.72
2019-04-27T08:50:10.980Z,94102.63
2019-04-27T08:52:41.842Z,94108.38
2019-04-27T08:55:11.855Z,94101.97
2019-04-27T08:57:41.642Z,94114.61
2019-04-27T09:00:11.487Z,94109.06
2019-04-27T09:02:46.754Z,94109.13
2019-04-27T09:05:12.654Z,94100.53
2019-04-27T09:08:01.306Z,94091.81
2019-04-27T09:10:34.567Z,94090.82
2019-04-27T09:13:04.895Z,94083.34
2019-04-27T09:15:39.140Z,94083.33
2019-04-27T09:18:09.083Z,94079.33
2019-04-27T09:20:40.633Z,94083.80
2019-04-27T09:23:10.345Z,94082.53
2019-04-27T09:25:39.694Z,94088.19
2019-04-27T09:28:08.905Z,94083.33
2019-04-27T09:30:39.443Z,94091.16
2019-04-27T09:33:08.920Z,94082.67
2019-04-27T09:35:38.983Z,94087.80
2019-04-27T09:38:07.667Z,94080.70
2019-04-27T09:40:36.427Z,94078.45
2019-04-27T09:43:05.063Z,94083.45
2019-04-27T09:45:34.173Z,94072.23
2019-04-27T09:48:02.859Z,94064.13
2019-04-27T09:50:31.590Z,94069.63
2019-04-27T09:53:00.357Z,94070.41
2019-04-27T09:55:29.046Z,94066.56
2019-04-27T09:57:57.846Z,94058.58
2019-04-27T10:00:27.899Z,94051.45
2019-04-27T10:02:56.761Z,94053.48
2019-04-27T10:05:26.331Z,94061.85
2019-04-27T10:07:56.929Z,94052.48
2019-04-27T10:10:26.800Z,94059.62
2019-04-27T10:12:56.994Z,94056.55
2019-04-27T10:15:26.622Z,94056.53
2019-04-27T10:17:57.577Z,94058.14
2019-04-27T10:20:26.476Z,94056.73
2019-04-27T10:22:56.454Z,94061.28
2019-04-27T10:25:29.363Z,94066.05
2019-04-27T10:27:58.694Z,94064.98
2019-04-27T10:30:28.503Z,94057.41
2019-04-27T10:32:57.187Z,94063.63
2019-04-27T10:35:26.112Z,94070.98
2019-04-27T10:37:55.296Z,94060.25
2019-04-27T10:40:26.238Z,94064.80
2019-04-27T10:42:56.261Z,94061.49
2019-04-27T10:45:25.324Z,94059.23
2019-04-27T10:47:54.095Z,94057.85
2019-04-27T10:50:23.365Z,94066.45
2019-04-27T10:52:53.897Z,94068.55
2019-04-27T10:55:23.350Z,94071.26
2019-04-27T10:57:54.842Z,94064.85
2019-04-27T11:00:25.730Z,94065.30
2019-04-27T11:02:58.421Z,94071.02
2019-04-27T11:05:31.137Z,94060.69
2019-04-27T11:08:00.546Z,94060.73
2019-04-27T11:10:29.394Z,94061.31
2019-04-27T11:12:59.594Z,94058.67
2019-04-27T11:15:28.277Z,94072.28
2019-04-27T11:17:57.275Z,94059.76
2019-04-27T11:20:27.843Z,94067.58
2019-04-27T11:23:07.039Z,94071.66
2019-04-27T11:25:28.535Z,94069.73
2019-04-27T11:27:57.818Z,94086.94
2019-04-27T11:30:26.565Z,94085.42
2019-04-27T11:32:58.935Z,94093.81
2019-04-27T11:35:35.975Z,94076.42
2019-04-27T11:38:05.901Z,94075.39
2019-04-27T11:40:34.472Z,94067.65
2019-04-27T11:43:05.912Z,94065.59
2019-04-27T11:45:36.254Z,94083.72
2019-04-27T11:48:13.645Z,94075.16
2019-04-27T11:50:42.352Z,94092.27
2019-04-27T11:53:22.106Z,94079.47
2019-04-27T11:55:41.669Z,94107.98
2019-04-27T11:58:10.388Z,94079.55
2019-04-27T12:00:39.152Z,94092.72
2019-04-27T12:03:08.869Z,94095.26
2019-04-27T12:05:37.552Z,94095.89
2019-04-27T12:08:06.450Z,94097.80
2019-04-27T12:10:36.888Z,94093.52
2019-04-27T12:13:07.606Z,94099.23
2019-04-27T12:15:37.001Z,94094.25
2019-04-27T12:18:08.934Z,94107.20
2019-04-27T12:20:36.938Z,94097.64
2019-04-27T12:23:06.549Z,94106.31
2019-04-27T12:25:37.316Z,94111.83
2019-04-27T12:28:10.118Z,94103.45
2019-04-27T12:30:41.084Z,94111.53
2019-04-27T12:33:10.319Z,94108.47
2019-04-27T12:35:39.090Z,94107.45
2019-04-27T12:38:07.775Z,94115.91
2019-04-27T12:40:37.991Z,94116.83
2019-04-27T12:43:06.916Z,94108.45
2019-04-27T12:45:39.959Z,94109.89
2019-04-27T12:48:08.057Z,94105.28
2019-04-27T12:50:36.821Z,94100.75
2019-04-27T12:53:07.383Z,94114.08
2019-04-27T12:55:46.834Z,94119.16
2019-04-27T12:58:26.595Z,94107.83
2019-04-27T13:01:11.631Z,94102.78
2019-04-27T13:03:42.063Z,94113.02
2019-04-27T13:06:13.904Z,94117.09
2019-04-27T13:08:45.790Z,94110.96
2019-04-27T13:11:16.208Z,94113.99
2019-04-27T13:13:45.095Z,94113.80
2019-04-27T13:16:13.878Z,94115.52
2019-04-27T13:18:42.657Z,94109.47
2019-04-27T13:21:11.342Z,94102.30
2019-04-27T13:23:40.166Z,94103.11
2019-04-27T13:26:08.852Z,94100.30
2019-04-27T13:28:37.507Z,94094.37
2019-04-27T13:31:07.092Z,94090.81
2019-04-27T13:33:36.507Z,94085.20
2019-04-27T13:36:07.601Z,94063.62
2019-04-27T13:38:36.599Z,94057.94
2019-04-27T13:41:07.141Z,94061.06
2019-04-27T13:43:37.353Z,94047.86
2019-04-27T13:46:08.319Z,94044.03
2019-04-27T13:48:56.231Z,94038.64
2019-04-27T13:51:42.891Z,94029.04
2019-04-27T13:54:21.520Z,94028.16
2019-04-27T13:56:42.410Z,94011.45
2019-04-27T13:59:12.785Z,94013.19
2019-04-27T14:01:41.857Z,94016.20
2019-04-27T14:04:10.628Z,94008.91
2019-04-27T14:06:42.084Z,94006.28
2019-04-27T14:09:12.657Z,94019.02
2019-04-27T14:11:45.926Z,94000.65
2019-04-27T14:14:18.432Z,94014.77
2019-04-27T14:16:49.221Z,94002.16
2019-04-27T14:19:19.759Z,93998.44
2019-04-27T14:21:49.103Z,94005.42
2019-04-27T14:24:27.936Z,93995.41
2019-04-27T14:26:50.297Z,93998.00
2019-04-27T14:29:21.558Z,93986.87
2019-04-27T14:31:50.239Z,93976.28
2019-04-27T14:34:19.159Z,93981.61
2019-04-27T14:36:53.353Z,93976.53
2019-04-27T14:39:23.783Z,93976.52
2019-04-27T14:41:52.866Z,93976.28
2019-04-27T14:44:22.640Z,93983.91
2019-04-27T14:46:52.959Z,93972.52
2019-04-27T14:49:24.821Z,93978.66
2019-04-27T14:51:53.776Z,93981.11
2019-04-27T14:54:23.306Z,93991.73
2019-04-27T14:56:52.318Z,93981.52
2019-04-27T14:59:21.161Z,93981.75
2019-04-27T15:01:52.178Z,93985.61
2019-04-27T15:04:20.875Z,93980.47
2019-04-27T15:06:49.888Z,93983.15
2019-04-27T15:09:21.002Z,93981.42
2019-04-27T15:11:53.613Z,93978.41
2019-04-27T15:14:23.707Z,93982.61
2019-04-27T15:16:52.571Z,93985.85
2019-04-27T15:19:25.911Z,93979.97
2019-04-27T15:21:58.862Z,93982.89
2019-04-27T15:24:27.676Z,93975.91
2019-04-27T15:27:00.718Z,93968.05
2019-04-27T15:29:29.098Z,93975.78
2019-04-27T15:32:05.407Z,93968.94
2019-04-27T15:34:40.060Z,93972.40
2019-04-27T15:37:22.852Z,93967.11
2019-04-27T15:40:04.037Z,93974.14
2019-04-27T15:42:31.696Z,93975.88
2019-04-27T15:45:00.386Z,93975.28
2019-04-27T15:47:29.195Z,93970.45
2019-04-27T15:49:59.003Z,93973.11
2019-04-27T15:52:33.130Z,93965.91
2019-04-27T15:55:02.704Z,93954.06
2019-04-27T15:57:33.483Z,93963.85
2019-04-27T16:00:01.751Z,93957.14
2019-04-27T16:02:30.614Z,93964.16
2019-04-27T16:05:00.151Z,93962.30
2019-04-27T16:07:32.026Z,93959.22
2019-04-27T16:10:02.670Z,93962.02
2019-04-27T16:12:30.310Z,93953.67
2019-04-27T16:15:00.334Z,93948.12
2019-04-27T16:17:31.909Z,93946.36
2019-04-27T16:19:59.600Z,93941.95
2019-04-27T16:22:28.661Z,93941.95
2019-04-27T16:24:58.124Z,93936.13
2019-04-27T16:27:31.457Z,93943.06
2019-04-27T16:29:57.889Z,93940.22
2019-04-27T16:32:27.797Z,93934.27
2019-04-27T16:34:56.504Z,93932.00
2019-04-27T16:37:29.033Z,93933.95
2019-04-27T16:39:59.961Z,93928.59
2019-04-27T16:42:29.357Z,93927.15
2019-04-27T16:44:58.239Z,93928.02
2019-04-27T16:47:28.185Z,93924.38
2019-04-27T16:49:58.644Z,93919.36
2019-04-27T16:52:29.786Z,93922.69
2019-04-27T16:55:00.660Z,93923.84
2019-04-27T16:57:32.473Z,93918.27
2019-04-27T17:00:01.263Z,93922.31
2019-04-27T17:02:30.113Z,93924.12
2019-04-27T17:05:00.551Z,93918.97
2019-04-27T17:07:37.404Z,93922.12
2019-04-27T17:10:04.230Z,93919.98
2019-04-27T17:12:41.359Z,93926.53
2019-04-27T17:15:29.955Z,93920.54
2019-04-27T17:18:19.885Z,93922.34
2019-04-27T17:20:52.601Z,93924.06
2019-04-27T17:23:31.263Z,93924.68
2019-04-27T17:26:05.943Z,93924.73
2019-04-27T17:28:33.449Z,93918.45
2019-04-27T17:31:02.103Z,93918.29
2019-04-27T17:33:35.043Z,93919.73
2019-04-27T17:36:04.025Z,93924.92
2019-04-27T17:38:34.593Z,93923.72
2019-04-27T17:41:04.765Z,93931.52
2019-04-27T17:43:37.402Z,93930.88
2019-04-27T17:46:07.394Z,93936.81
2019-04-27T17:48:37.959Z,93942.92
2019-04-27T17:51:08.879Z,93941.20
2019-04-27T17:53:38.501Z,93945.52
2019-04-27T17:56:08.688Z,93944.80
2019-04-27T17:58:39.754Z,93950.02
2019-04-27T18:01:14.083Z,93950.30
2019-04-27T18:03:40.855Z,93943.36
2019-04-27T18:06:09.683Z,93938.09
2019-04-27T18:08:40.367Z,93935.13
2019-04-27T18:11:10.854Z,93939.27
2019-04-27T18:13:42.097Z,93933.44
2019-04-27T18:16:10.671Z,93930.55
2019-04-27T18:19:00.074Z,93936.35
2019-04-27T18:21:29.437Z,93938.78
2019-04-27T18:24:01.507Z,93950.39
2019-04-27T18:26:32.208Z,93962.28
2019-04-27T18:29:01.703Z,93965.59
2019-04-27T18:31:32.779Z,93974.40
2019-04-27T18:34:01.610Z,93975.81
2019-04-27T18:36:30.389Z,93977.41
2019-04-27T18:38:59.624Z,93974.09
2019-04-27T18:41:28.800Z,93974.32
2019-04-27T18:44:00.449Z,93978.12
2019-04-27T18:46:32.081Z,93980.20
2019-04-27T18:49:03.389Z,93984.17
2019-04-27T18:51:41.819Z,93983.31
2019-04-27T18:54:11.496Z,93982.39
2019-04-27T18:56:42.499Z,93988.50
2019-04-27T18:59:11.415Z,93985.48
2019-04-27T19:01:40.143Z,93992.16
2019-04-27T19:04:13.623Z,94000.77
2019-04-27T19:06:44.681Z,94003.31
2019-04-27T19:09:18.492Z,94001.44
2019-04-27T19:11:56.205Z,94002.31
2019-04-27T19:14:18.967Z,94001.30
2019-04-27T19:16:49.484Z,94003.02
2019-04-27T19:19:18.939Z,94006.03
2019-04-27T19:21:48.648Z,94004.73
2019-04-27T19:24:19.189Z,94008.13
2019-04-27T19:26:56.144Z,94014.01
2019-04-27T19:29:29.566Z,94021.16
2019-04-27T19:32:00.226Z,94020.08
2019-04-27T19:34:29.022Z,94028.36
2019-04-27T19:36:59.283Z,94024.51
2019-04-27T19:39:28.553Z,94038.63
2019-04-27T19:42:03.068Z,94035.83
2019-04-27T19:44:29.140Z,94036.54
2019-04-27T19:47:00.169Z,94037.66
2019-04-27T19:49:34.667Z,94037.62
2019-04-27T19:52:08.793Z,94033.89
2019-04-27T19:54:39.787Z,94039.05
2019-04-27T19:57:09.269Z,94040.28
2019-04-27T19:59:52.143Z,94040.89
2019-04-27T20:02:22.150Z,94046.58
2019-04-27T20:04:53.158Z,94038.42
2019-04-27T20:07:22.034Z,94044.48
2019-04-27T20:09:53.499Z,94048.16
2019-04-27T20:12:23.783Z,94050.40
2019-04-27T20:14:59.805Z,94052.89
2019-04-27T20:17:31.164Z,94062.63
2019-04-27T20:20:01.490Z,94055.77
2019-04-27T20:22:32.458Z,94065.54
2019-04-27T20:25:02.032Z,94068.52
2019-04-27T20:27:45.230Z,94063.52
2019-04-27T20:30:03.056Z,94069.70
2019-04-27T20:32:34.191Z,94068.98
2019-04-27T20:35:03.197Z,94068.97
2019-04-27T20:37:31.937Z,94070.40
2019-04-27T20:40:01.603Z,94071.89
2019-04-27T20:42:31.561Z,94065.50
2019-04-27T20:45:01.925Z,94071.09
2019-04-27T20:47:32.924Z,94067.02
2019-04-27T20:50:01.931Z,94066.66
2019-04-27T20:52:35.007Z,94068.27
2019-04-27T20:55:05.339Z,94065.48
2019-04-27T20:57:34.978Z,94066.39
2019-04-27T21:00:06.155Z,94063.94
2019-04-27T21:02:36.391Z,94070.92
2019-04-27T21:05:21.074Z,94058.48
2019-04-27T21:07:52.863Z,94063.55
2019-04-27T21:10:21.738Z,94068.48
2019-04-27T21:12:51.881Z,94063.64
2019-04-27T21:15:21.393Z,94062.67
2019-04-27T21:17:51.191Z,94057.35
2019-04-27T21:20:21.782Z,94058.94
2019-04-27T21:22:51.548Z,94061.36
2019-04-27T21:25:21.181Z,94058.28
2019-04-27T21:27:51.362Z,94058.81
2019-04-27T21:30:21.360Z,94055.53
2019-04-27T21:32:50.924Z,94060.87
2019-04-27T21:35:21.102Z,94058.68
2019-04-27T21:37:51.139Z,94062.55
2019-04-27T21:40:21.511Z,94054.20
2019-04-27T21:42:51.425Z,94042.28
2019-04-27T21:45:21.753Z,94035.13
2019-04-27T21:47:52.382Z,94042.88
2019-04-27T21:50:23.180Z,94037.84
2019-04-27T21:52:56.372Z,94034.86
2019-04-27T21:55:30.906Z,94039.53
2019-04-27T21:58:01.406Z,94047.48
2019-04-27T22:00:43.379Z,94048.08
2019-04-27T22:03:13.826Z,94045.69
2019-04-27T22:05:42.738Z,94044.99
2019-04-27T22:08:11.822Z,94043.57
2019-04-27T22:10:41.030Z,94050.52
2019-04-27T22:13:09.773Z,94052.72
2019-04-27T22:15:38.461Z,94056.23
2019-04-27T22:18:07.881Z,94062.76
2019-04-27T22:20:36.863Z,94070.21
2019-04-27T22:23:16.086Z,94077.07
2019-04-27T22:25:44.724Z,94090.59
2019-04-27T22:28:13.414Z,94104.02
2019-04-27T22:30:42.035Z,94106.08
2019-04-27T22:33:11.325Z,94128.38
2019-04-27T22:35:41.425Z,94136.82
2019-04-27T22:38:11.964Z,94143.47
2019-04-27T22:40:51.543Z,94137.89
2019-04-27T22:43:31.539Z,94144.98
2019-04-27T22:46:02.010Z,94143.58
2019-04-27T22:48:31.408Z,94148.84
2019-04-27T22:51:01.625Z,94154.90
2019-04-27T22:53:30.633Z,94158.18
2019-04-27T22:56:13.583Z,94171.13
2019-04-27T22:58:43.459Z,94171.91
2019-04-27T23:01:30.199Z,94171.63
2019-04-27T23:04:02.008Z,94174.59
2019-04-27T23:06:32.655Z,94171.41
2019-04-27T23:09:01.686Z,94177.29
2019-04-27T23:11:31.375Z,94180.06
2019-04-27T23:14:01.010Z,94185.73
2019-04-27T23:16:31.606Z,94176.99
2019-04-27T23:19:01.834Z,94175.70
2019-04-27T23:21:31.269Z,94186.22
2019-04-27T23:24:01.870Z,94186.63
2019-04-27T23:26:31.220Z,94185.23
2019-04-27T23:29:11.066Z,94184.04
2019-04-27T23:31:41.242Z,94178.16
2019-04-27T23:34:11.739Z,94178.66
2019-04-27T23:36:42.425Z,94174.78
2019-04-27T23:39:11.897Z,94173.59
2019-04-27T23:41:40.606Z,94181.56
2019-04-27T23:44:09.294Z,94182.55
2019-04-27T23:46:37.932Z,94185.55
2019-04-27T23:49:06.615Z,94188.92
2019-04-27T23:51:36.852Z,94189.09
2019-04-27T23:54:05.464Z,94194.48
2019-04-27T23:56:34.259Z,94194.08
2019-04-27T23:59:02.867Z,94199.34
